Time;durP1;ratioP1;P1;durP2;ratioP2;P2;SDS_P1;SDS_P2;PMS_P1;PMS_P2;Temp;Humidity;BMP_temperature;BMP_pressure;BME280_temperature;BME280_humidity;BME280_pressure;Samples;Min_cycle;Max_cycle;Signal;HPM_P1;HPM_P2
2022/01/16 00:04:46;;;;;;;73.60;38.78;;;0.70;99.90;;;;;;5059113;28;20230;-49
2022/01/16 00:07:13;;;;;;;59.65;34.67;;;0.80;99.90;;;;;;5059620;28;20195;-50
2022/01/16 00:09:40;;;;;;;68.30;39.95;;;0.80;99.90;;;;;;5059488;28;20261;-50
2022/01/16 00:12:08;;;;;;;63.65;34.45;;;0.90;99.90;;;;;;5059417;28;20195;-51
2022/01/16 00:14:35;;;;;;;61.22;38.03;;;0.90;99.90;;;;;;5059281;28;20219;-50
2022/01/16 00:17:04;;;;;;;63.38;36.00;;;1.00;99.90;;;;;;5059432;28;20257;-49
2022/01/16 00:19:31;;;;;;;68.40;34.15;;;0.90;99.90;;;;;;5058469;28;20200;-53
2022/01/16 00:21:58;;;;;;;62.58;35.35;;;0.90;99.90;;;;;;5059579;28;20207;-53
2022/01/16 00:24:26;;;;;;;61.80;34.35;;;0.90;99.90;;;;;;5059706;28;20235;-48
2022/01/16 00:26:53;;;;;;;74.90;35.38;;;0.80;99.90;;;;;;5058975;28;20196;-52
2022/01/16 00:29:20;;;;;;;65.07;38.72;;;0.40;99.90;;;;;;5059510;28;20502;-50
2022/01/16 00:31:47;;;;;;;73.10;41.00;;;0.20;99.90;;;;;;5059067;28;20203;-48
2022/01/16 00:34:14;;;;;;;84.65;42.97;;;0.20;99.90;;;;;;5059634;28;20250;-49
2022/01/16 00:36:41;;;;;;;102.78;50.50;;;0.40;99.90;;;;;;5059198;28;20207;-53
2022/01/16 00:39:09;;;;;;;94.13;44.67;;;0.40;99.90;;;;;;5060536;28;20225;-50
2022/01/16 00:41:36;;;;;;;80.70;43.75;;;0.20;99.90;;;;;;5060012;28;20522;-50
2022/01/16 00:44:04;;;;;;;79.35;41.70;;;0.30;99.90;;;;;;5058810;28;20249;-54
2022/01/16 00:46:32;;;;;;;74.28;37.92;;;0.40;99.90;;;;;;5059231;28;20200;-52
2022/01/16 00:49:00;;;;;;;66.82;38.33;;;0.50;99.90;;;;;;5061681;28;20206;-49
2022/01/16 00:51:27;;;;;;;76.60;40.22;;;0.50;99.90;;;;;;5062922;28;20242;-52
2022/01/16 00:53:55;;;;;;;83.22;40.53;;;0.50;99.90;;;;;;5062405;28;20445;-48
2022/01/16 00:56:22;;;;;;;68.10;38.95;;;0.50;99.90;;;;;;5062522;28;20207;-50
2022/01/16 00:58:50;;;;;;;62.80;38.60;;;0.40;99.90;;;;;;5062412;28;20382;-50
2022/01/16 01:01:18;;;;;;;73.63;39.38;;;0.40;99.90;;;;;;5062951;28;20576;-51
2022/01/16 01:03:46;;;;;;;72.57;40.40;;;0.40;99.90;;;;;;5062381;28;20277;-51
2022/01/16 01:06:14;;;;;;;85.75;44.63;;;0.20;99.90;;;;;;5062254;28;20195;-51
2022/01/16 01:08:42;;;;;;;84.00;44.22;;;0.10;99.90;;;;;;5062515;28;20219;-49
2022/01/16 01:11:15;;;;;;;70.13;42.60;;;0.10;99.90;;;;;;5062072;28;20203;-48
2022/01/16 01:14:26;;;;;;;71.53;41.40;;;0.20;99.90;;;;;;5062481;28;20584;-52
2022/01/16 01:16:50;;;;;;;71.70;38.75;;;0.30;99.90;;;;;;5064362;28;20204;-49
2022/01/16 01:19:20;;;;;;;88.47;43.70;;;0.30;99.90;;;;;;5062618;28;20372;-53
2022/01/16 01:21:48;;;;;;;78.95;41.22;;;0.30;99.90;;;;;;5064768;28;20203;-51
2022/01/16 01:24:16;;;;;;;75.55;42.75;;;0.30;99.90;;;;;;5063853;28;20220;-53
2022/01/16 01:27:00;;;;;;;81.53;44.65;;;0.30;99.90;;;;;;5061613;28;20210;-54
2022/01/16 01:29:29;;;;;;;76.78;43.65;;;0.10;99.90;;;;;;5062368;28;20433;-53
2022/01/16 01:31:57;;;;;;;75.20;41.35;;;0.10;99.90;;;;;;5061352;28;20269;-52
2022/01/16 01:34:25;;;;;;;110.72;49.97;;;0.00;99.90;;;;;;5062094;28;20258;-52
2022/01/16 01:36:53;;;;;;;101.70;52.33;;;0.00;99.90;;;;;;5061812;28;20389;-52
2022/01/16 01:39:22;;;;;;;86.95;44.70;;;0.00;99.90;;;;;;5062008;28;20245;-52
2022/01/16 01:41:55;;;;;;;70.05;43.13;;;0.10;99.90;;;;;;5062390;28;20511;-50
2022/01/16 01:52:41;;;;;;;76.85;43.38;;;0.00;99.90;;;;;;5061857;28;20195;-50
2022/01/16 01:55:09;;;;;;;77.18;43.55;;;0.00;99.90;;;;;;5061855;28;20449;-51
2022/01/16 01:57:37;;;;;;;88.25;47.92;;;0.00;99.90;;;;;;5057093;28;20445;-51
2022/01/16 02:00:06;;;;;;;82.45;46.78;;;0.00;99.90;;;;;;5074605;28;20202;-53
2022/01/16 02:02:46;;;;;;;83.18;47.15;;;0.00;99.90;;;;;;5082242;28;20513;-51
2022/01/16 02:05:13;;;;;;;86.15;45.92;;;-0.10;99.90;;;;;;5081957;28;20202;-51
2022/01/16 02:07:41;;;;;;;70.85;39.70;;;-0.10;99.90;;;;;;5081949;28;20393;-52
2022/01/16 02:10:09;;;;;;;85.30;43.72;;;-0.10;99.90;;;;;;5081946;28;20428;-51
2022/01/16 02:12:41;;;;;;;75.20;43.63;;;-0.10;99.90;;;;;;5081377;28;20394;-51
2022/01/16 02:15:34;;;;;;;87.93;44.03;;;-0.30;99.90;;;;;;5081573;28;20555;-51
2022/01/16 02:32:12;;;;;;;80.30;45.25;;;-0.30;99.90;;;;;;5081401;28;20420;-54
2022/01/16 02:34:42;;;;;;;80.55;46.00;;;-0.30;99.90;;;;;;5080613;28;20218;-54
2022/01/16 02:37:13;;;;;;;93.53;49.95;;;-0.20;99.90;;;;;;5080775;28;20206;-53
2022/01/16 02:39:50;;;;;;;80.55;47.70;;;-0.20;99.90;;;;;;5080715;28;20268;-50
2022/01/16 02:42:18;;;;;;;86.28;48.58;;;-0.30;99.90;;;;;;5073940;28;20195;-54
2022/01/16 02:45:00;;;;;;;85.05;46.35;;;-0.30;99.90;;;;;;5060317;28;20235;-53
2022/01/16 02:47:27;;;;;;;93.70;49.97;;;-0.30;99.90;;;;;;5060795;28;20433;-54
2022/01/16 02:50:15;;;;;;;97.97;50.70;;;-0.30;99.90;;;;;;5060470;28;20199;-51
2022/01/16 02:52:43;;;;;;;91.55;50.85;;;-0.40;99.90;;;;;;5060834;28;20281;-52
2022/01/16 02:55:13;;;;;;;87.90;46.90;;;-0.50;99.90;;;;;;5060386;28;20418;-54
2022/01/16 02:57:40;;;;;;;80.82;48.17;;;-0.40;99.90;;;;;;5060383;28;20207;-53
2022/01/16 03:00:09;;;;;;;104.03;52.60;;;-0.30;99.90;;;;;;5061486;28;20241;-51
2022/01/16 03:02:36;;;;;;;91.00;50.58;;;-0.30;99.90;;;;;;5062891;28;20199;-51
2022/01/16 03:05:04;;;;;;;89.00;46.70;;;-0.20;99.90;;;;;;5061855;28;20216;-51
2022/01/16 03:07:32;;;;;;;85.45;48.55;;;-0.20;99.90;;;;;;5059975;28;20196;-54
2022/01/16 03:10:16;;;;;;;100.13;46.75;;;-0.50;99.90;;;;;;5060134;28;20530;-52
2022/01/16 03:12:45;;;;;;;77.93;46.10;;;-0.40;99.90;;;;;;5059996;28;20553;-51
2022/01/16 03:15:14;;;;;;;93.45;51.00;;;-0.40;99.90;;;;;;5060684;28;20199;-51
2022/01/16 03:21:53;;;;;;;84.60;50.47;;;-0.30;99.90;;;;;;5059737;28;20207;-54
2022/01/16 03:23:20;;;;;;;96.55;50.13;;;-0.60;99.90;;;;;;5059703;28;20592;-52
2022/01/16 03:25:49;;;;;;;98.25;55.28;;;-0.50;99.90;;;;;;5060266;28;20199;-50
2022/01/16 03:28:18;;;;;;;99.22;52.83;;;-0.40;99.90;;;;;;5059969;28;20207;-52
2022/01/16 03:30:46;;;;;;;100.32;52.38;;;-0.60;99.90;;;;;;5060084;28;20199;-53
2022/01/16 03:33:13;;;;;;;89.70;51.50;;;-0.80;99.90;;;;;;5060509;28;20602;-54
2022/01/16 03:35:42;;;;;;;100.68;54.00;;;-0.90;99.90;;;;;;5060279;28;20196;-51
2022/01/16 03:38:09;;;;;;;117.15;57.17;;;-0.90;99.90;;;;;;5060325;28;20394;-54
2022/01/16 03:40:37;;;;;;;107.50;53.95;;;-0.90;99.90;;;;;;5059843;28;20203;-51
2022/01/16 03:43:12;;;;;;;103.90;60.75;;;-0.80;99.90;;;;;;5060453;28;20229;-51
2022/01/16 03:45:42;;;;;;;110.28;54.28;;;-0.90;99.90;;;;;;5059967;28;20568;-52
2022/01/16 03:48:09;;;;;;;107.97;58.90;;;-0.60;99.90;;;;;;5060150;28;20241;-52
2022/01/16 03:50:36;;;;;;;86.75;53.80;;;-0.60;99.90;;;;;;5059925;28;20191;-50
2022/01/16 03:53:04;;;;;;;94.43;53.58;;;-0.50;99.90;;;;;;5060349;28;20277;-50
2022/01/16 03:55:33;;;;;;;104.90;54.20;;;-0.40;99.90;;;;;;5060469;28;20245;-54
2022/01/16 03:58:01;;;;;;;92.13;55.67;;;-0.40;99.90;;;;;;5059548;28;20207;-52
2022/01/16 04:00:29;;;;;;;107.15;55.85;;;-0.40;99.90;;;;;;5060392;28;20230;-52
2022/01/16 04:02:56;;;;;;;104.10;50.28;;;-0.30;99.90;;;;;;5059328;28;20549;-51
2022/01/16 04:05:24;;;;;;;93.97;52.30;;;-0.30;99.90;;;;;;5060257;28;20230;-51
2022/01/16 04:07:51;;;;;;;93.60;53.33;;;-0.50;99.90;;;;;;5059393;28;20394;-51
2022/01/16 04:10:21;;;;;;;103.15;55.47;;;-0.70;99.90;;;;;;5060000;28;20249;-51
2022/01/16 04:12:49;;;;;;;104.07;60.33;;;-0.80;99.90;;;;;;5059318;28;20231;-54
2022/01/16 04:17:45;;;;;;;122.47;60.80;;;-0.80;99.90;;;;;;5059174;28;20407;-53
2022/01/16 04:20:16;;;;;;;97.45;58.22;;;-0.90;99.90;;;;;;5059731;28;20237;-55
2022/01/16 04:22:45;;;;;;;88.55;51.83;;;-0.90;99.90;;;;;;5060445;28;20199;-55
2022/01/16 04:25:14;;;;;;;109.00;56.03;;;-0.80;99.90;;;;;;5063232;28;20258;-52
2022/01/16 04:27:42;;;;;;;97.60;55.97;;;-0.90;99.90;;;;;;5062573;28;20211;-54
2022/01/16 04:30:10;;;;;;;98.13;58.03;;;-1.10;99.90;;;;;;5063472;28;20445;-53
2022/01/16 04:32:37;;;;;;;104.35;60.28;;;-1.20;99.90;;;;;;5063711;28;20199;-53
2022/01/16 04:35:06;;;;;;;93.60;54.72;;;-1.20;99.90;;;;;;5063153;28;20246;-52
2022/01/16 04:37:33;;;;;;;102.80;56.10;;;-1.30;99.90;;;;;;5063121;28;20199;-53
2022/01/16 04:40:03;;;;;;;101.25;55.15;;;-1.30;99.90;;;;;;5063570;28;20698;-49
2022/01/16 04:45:16;;;;;;;95.50;53.47;;;-1.20;99.90;;;;;;5062830;28;20231;-49
2022/01/16 04:47:45;;;;;;;96.03;52.08;;;-1.10;99.90;;;;;;5062768;28;20279;-51
2022/01/16 04:50:13;;;;;;;102.90;54.33;;;-1.20;99.90;;;;;;5062929;28;20388;-51
2022/01/16 04:52:43;;;;;;;112.88;56.00;;;-1.30;99.90;;;;;;5062748;28;20241;-53
2022/01/16 04:55:11;;;;;;;97.85;50.75;;;-1.40;99.90;;;;;;5063089;28;20203;-52
2022/01/16 04:57:39;;;;;;;106.68;57.65;;;-1.60;99.90;;;;;;5062564;28;20430;-53
2022/01/16 05:00:13;;;;;;;100.30;55.63;;;-1.50;99.90;;;;;;5063422;28;20203;-51
2022/01/16 05:02:41;;;;;;;100.38;54.33;;;-1.70;99.90;;;;;;5062636;28;20217;-53
2022/01/16 05:05:09;;;;;;;100.88;55.75;;;-1.60;99.90;;;;;;5062976;28;20504;-50
2022/01/16 05:07:36;;;;;;;107.05;56.15;;;-1.70;99.90;;;;;;5062467;28;20203;-52
2022/01/16 05:10:04;;;;;;;104.85;55.00;;;-1.70;99.90;;;;;;5062981;28;20244;-49
2022/01/16 05:12:35;;;;;;;102.00;56.92;;;-1.80;99.90;;;;;;5062627;28;20210;-51
2022/01/16 05:17:50;;;;;;;99.03;55.67;;;-1.90;99.90;;;;;;5062178;28;20207;-53
2022/01/16 05:20:17;;;;;;;100.57;61.05;;;-1.90;99.90;;;;;;5062316;28;20514;-50
2022/01/16 05:22:44;;;;;;;121.63;59.75;;;-1.90;99.90;;;;;;5062404;28;20441;-52
2022/01/16 05:25:14;;;;;;;104.32;56.28;;;-1.90;99.90;;;;;;5061991;28;20227;-55
2022/01/16 05:27:42;;;;;;;120.00;59.28;;;-1.90;99.90;;;;;;5062071;28;20195;-51
2022/01/16 05:30:10;;;;;;;106.75;58.30;;;-1.80;99.90;;;;;;5062076;28;20196;-50
2022/01/16 05:32:37;;;;;;;116.88;61.53;;;-1.70;99.90;;;;;;5062647;28;20309;-49
2022/01/16 05:35:07;;;;;;;115.35;57.95;;;-1.70;99.90;;;;;;5061679;28;20223;-54
2022/01/16 05:37:35;;;;;;;104.93;59.60;;;-1.70;99.90;;;;;;5062144;28;20199;-49
2022/01/16 05:40:04;;;;;;;113.95;56.55;;;-1.70;99.90;;;;;;5060762;28;20215;-49
2022/01/16 05:42:32;;;;;;;113.85;59.78;;;-1.80;99.90;;;;;;5062022;28;20245;-52
2022/01/16 05:45:00;;;;;;;104.95;56.10;;;-1.80;99.90;;;;;;5062090;28;20227;-53
2022/01/16 05:47:28;;;;;;;108.10;58.42;;;-1.80;99.90;;;;;;5062114;28;20196;-49
2022/01/16 05:49:55;;;;;;;94.85;56.08;;;-1.80;99.90;;;;;;5062097;28;20265;-56
2022/01/16 05:52:43;;;;;;;106.28;60.00;;;-1.70;99.90;;;;;;5061609;28;20197;-48
2022/01/16 05:55:11;;;;;;;102.65;56.25;;;-1.90;99.90;;;;;;5062156;28;20510;-52
2022/01/16 05:57:38;;;;;;;109.55;54.55;;;-2.00;99.90;;;;;;5062507;28;20417;-52
2022/01/16 06:00:08;;;;;;;97.70;58.55;;;-2.10;99.90;;;;;;5062361;28;20245;-53
2022/01/16 06:02:36;;;;;;;110.68;58.67;;;-2.20;99.90;;;;;;5062900;28;20204;-54
2022/01/16 06:05:04;;;;;;;108.07;61.10;;;-2.30;99.90;;;;;;5062270;28;20452;-55
2022/01/16 06:07:32;;;;;;;104.97;56.70;;;-2.20;99.90;;;;;;5062979;28;20214;-55
2022/01/16 06:10:00;;;;;;;97.30;54.83;;;-2.20;99.90;;;;;;5063862;28;20407;-55
2022/01/16 06:12:27;;;;;;;89.05;54.95;;;-2.20;99.90;;;;;;5064740;28;20406;-55
2022/01/16 06:14:55;;;;;;;108.88;61.78;;;-2.00;99.90;;;;;;5063411;28;20211;-52
2022/01/16 06:17:22;;;;;;;96.82;58.58;;;-2.10;99.90;;;;;;5062199;28;20193;-53
2022/01/16 06:19:49;;;;;;;108.25;62.00;;;-2.10;99.90;;;;;;5062084;28;20437;-51
2022/01/16 06:22:16;;;;;;;107.60;59.78;;;-2.10;99.90;;;;;;5063514;28;20203;-49
2022/01/16 06:24:44;;;;;;;102.78;59.15;;;-2.20;99.90;;;;;;5062283;28;20261;-54
2022/01/16 06:27:11;;;;;;;102.53;55.72;;;-2.20;99.90;;;;;;5061880;28;20196;-49
2022/01/16 06:29:39;;;;;;;106.97;58.28;;;-2.00;99.90;;;;;;5062227;28;20242;-53
2022/01/16 06:32:06;;;;;;;107.40;58.22;;;-2.10;99.90;;;;;;5062468;28;20406;-55
2022/01/16 06:34:34;;;;;;;113.60;60.70;;;-2.20;99.90;;;;;;5062573;28;20230;-49
2022/01/16 06:37:01;;;;;;;102.50;58.85;;;-2.10;99.90;;;;;;5061063;28;20480;-49
2022/01/16 06:39:29;;;;;;;127.45;59.70;;;-2.10;99.90;;;;;;5061400;28;20226;-51
2022/01/16 06:41:56;;;;;;;96.35;61.63;;;-2.20;99.90;;;;;;5060775;28;20234;-52
2022/01/16 06:44:40;;;;;;;99.63;57.30;;;-2.10;99.90;;;;;;5060462;28;20223;-49
2022/01/16 06:47:07;;;;;;;114.13;62.17;;;-2.20;99.90;;;;;;5060639;28;20199;-48
2022/01/16 06:49:34;;;;;;;115.95;57.47;;;-2.30;99.90;;;;;;5061178;28;20223;-52
2022/01/16 06:52:02;;;;;;;104.10;55.95;;;-2.30;99.90;;;;;;5060886;28;20530;-51
2022/01/16 06:54:29;;;;;;;120.47;58.80;;;-2.30;99.90;;;;;;5059423;28;20219;-49
2022/01/16 06:56:56;;;;;;;90.60;54.53;;;-2.30;99.90;;;;;;5060511;28;20648;-52
2022/01/16 06:59:24;;;;;;;116.45;56.05;;;-2.30;99.90;;;;;;5060046;28;20510;-50
2022/01/16 07:01:51;;;;;;;113.65;58.88;;;-2.30;99.90;;;;;;5060595;28;20239;-53
2022/01/16 07:04:18;;;;;;;99.70;56.88;;;-2.30;99.90;;;;;;5060259;28;20231;-49
2022/01/16 07:06:46;;;;;;;104.35;56.83;;;-2.20;99.90;;;;;;5061071;28;20199;-47
2022/01/16 07:09:13;;;;;;;101.00;55.00;;;-2.00;99.90;;;;;;5060825;28;20195;-47
2022/01/16 07:11:41;;;;;;;97.50;52.20;;;-2.00;99.90;;;;;;5060495;28;20199;-48
2022/01/16 07:14:08;;;;;;;101.25;57.33;;;-2.00;99.90;;;;;;5060409;28;20223;-50
2022/01/16 07:16:35;;;;;;;98.45;51.42;;;-2.00;99.90;;;;;;5060263;28;20195;-50
2022/01/16 07:19:03;;;;;;;98.82;53.08;;;-1.90;99.90;;;;;;5060364;28;20421;-48
2022/01/16 07:21:30;;;;;;;102.95;52.75;;;-1.80;99.90;;;;;;5060443;28;20305;-51
2022/01/16 07:23:58;;;;;;;90.00;48.70;;;-1.70;99.90;;;;;;5060161;28;20262;-49
2022/01/16 07:26:25;;;;;;;85.00;49.17;;;-1.60;99.90;;;;;;5059363;28;20534;-48
2022/01/16 07:28:53;;;;;;;90.68;51.63;;;-1.60;99.90;;;;;;5060168;28;20242;-51
2022/01/16 07:31:20;;;;;;;85.20;51.17;;;-1.70;99.90;;;;;;5054474;28;20209;-50
2022/01/16 07:33:48;;;;;;;86.38;47.75;;;-1.70;99.90;;;;;;5050221;28;20222;-48
2022/01/16 07:36:15;;;;;;;86.38;50.00;;;-1.60;99.90;;;;;;5046687;28;20227;-51
2022/01/16 07:38:42;;;;;;;89.13;48.35;;;-1.70;99.90;;;;;;5049566;28;20250;-49
2022/01/16 07:41:10;;;;;;;91.50;49.08;;;-1.70;99.90;;;;;;5047871;28;20530;-52
2022/01/16 07:43:37;;;;;;;84.60;46.70;;;-1.70;99.90;;;;;;5051897;28;20554;-49
2022/01/16 07:46:04;;;;;;;81.80;47.55;;;-1.80;99.90;;;;;;5048888;28;21263;-50
2022/01/16 07:48:32;;;;;;;81.85;50.90;;;-1.80;99.90;;;;;;5048198;28;20212;-48
2022/01/16 07:50:59;;;;;;;76.40;43.30;;;-1.50;99.90;;;;;;5050855;28;20207;-48
2022/01/16 07:53:26;;;;;;;79.97;46.15;;;-1.40;99.90;;;;;;5047607;28;20220;-50
2022/01/16 07:55:53;;;;;;;85.93;46.92;;;-1.30;99.90;;;;;;5050094;28;20206;-48
2022/01/16 07:58:20;;;;;;;83.70;48.80;;;-1.20;99.90;;;;;;5050984;28;20380;-52
2022/01/16 08:00:53;;;;;;;87.00;48.67;;;-1.30;99.90;;;;;;5055042;28;20199;-53
2022/01/16 08:03:20;;;;;;;74.28;44.90;;;-1.20;99.90;;;;;;5069465;28;20472;-48
2022/01/16 08:05:47;;;;;;;80.22;44.35;;;-1.10;99.90;;;;;;5067572;28;20218;-48
2022/01/16 08:08:14;;;;;;;90.15;44.92;;;-1.10;99.90;;;;;;5073988;28;20449;-50
2022/01/16 08:10:42;;;;;;;80.82;43.90;;;-1.00;99.90;;;;;;5055211;28;20415;-52
2022/01/16 08:13:09;;;;;;;70.55;41.83;;;-1.00;99.90;;;;;;5046545;28;20536;-50
2022/01/16 08:15:36;;;;;;;68.20;41.92;;;-0.90;99.90;;;;;;5045855;28;20203;-54
2022/01/16 08:18:04;;;;;;;72.30;45.30;;;-0.70;99.90;;;;;;5053136;28;20198;-56
2022/01/16 08:20:31;;;;;;;75.55;44.63;;;-0.80;99.90;;;;;;5075066;28;20206;-50
2022/01/16 08:22:58;;;;;;;88.78;44.30;;;-0.70;99.90;;;;;;5083268;28;20638;-50
2022/01/16 08:25:26;;;;;;;87.15;41.40;;;-0.70;99.90;;;;;;5083907;28;20223;-51
2022/01/16 08:27:53;;;;;;;79.55;43.90;;;-0.80;99.90;;;;;;5083065;28;20202;-49
2022/01/16 08:30:21;;;;;;;77.20;39.55;;;-0.80;99.90;;;;;;5051975;28;20200;-50
2022/01/16 08:32:48;;;;;;;87.80;42.80;;;-0.70;99.90;;;;;;5050393;28;20196;-51
2022/01/16 08:35:19;;;;;;;63.10;36.92;;;-0.60;99.90;;;;;;5049935;28;20518;-51
2022/01/16 08:37:48;;;;;;;81.40;46.60;;;-0.50;99.90;;;;;;5059719;28;20529;-49
2022/01/16 08:40:16;;;;;;;81.25;42.58;;;-0.40;99.90;;;;;;5052325;28;20208;-50
2022/01/16 08:42:43;;;;;;;71.03;39.70;;;-0.40;99.90;;;;;;5070978;28;20497;-52
2022/01/16 08:45:11;;;;;;;72.43;41.22;;;-0.30;99.90;;;;;;5083644;28;20231;-49
2022/01/16 08:47:39;;;;;;;69.20;39.25;;;-0.20;99.90;;;;;;5082984;28;20202;-50
2022/01/16 08:50:08;;;;;;;74.38;39.00;;;-0.20;99.90;;;;;;5067044;28;20242;-50
2022/01/16 08:52:36;;;;;;;65.70;36.03;;;-0.10;99.90;;;;;;5062861;28;20677;-51
2022/01/16 08:55:04;;;;;;;63.90;37.38;;;-0.20;99.90;;;;;;5062532;28;20234;-49
2022/01/16 08:57:31;;;;;;;67.15;39.70;;;0.00;99.90;;;;;;5062898;28;20230;-51
2022/01/16 08:59:59;;;;;;;72.53;38.70;;;0.30;99.90;;;;;;5053627;28;20501;-48
2022/01/16 09:02:26;;;;;;;76.07;38.88;;;0.20;99.90;;;;;;5059044;28;20200;-50
2022/01/16 09:04:53;;;;;;;63.05;36.15;;;0.10;99.90;;;;;;5062613;28;22107;-48
2022/01/16 09:07:21;;;;;;;63.95;35.75;;;0.10;99.90;;;;;;5059907;28;20249;-52
2022/01/16 09:09:48;;;;;;;63.15;37.67;;;0.30;99.90;;;;;;5062488;28;20211;-52
2022/01/16 09:12:15;;;;;;;74.32;38.38;;;0.40;99.90;;;;;;5074363;28;20266;-52
2022/01/16 09:14:42;;;;;;;59.58;34.72;;;0.60;99.90;;;;;;5056784;28;20220;-48
2022/01/16 09:17:10;;;;;;;87.88;37.90;;;0.70;99.90;;;;;;5041911;28;20229;-53
2022/01/16 09:19:37;;;;;;;66.25;37.38;;;0.80;99.90;;;;;;5042920;28;20222;-53
2022/01/16 09:22:05;;;;;;;67.47;36.70;;;0.70;99.90;;;;;;5043562;28;20513;-48
2022/01/16 09:24:33;;;;;;;65.53;36.70;;;1.00;99.90;;;;;;5041601;28;20231;-50
2022/01/16 09:27:01;;;;;;;65.75;38.55;;;1.10;99.90;;;;;;5041204;28;20302;-50
2022/01/16 09:29:28;;;;;;;64.43;35.55;;;1.40;99.90;;;;;;5041870;28;20197;-48
2022/01/16 09:31:55;;;;;;;65.50;33.55;;;1.60;99.90;;;;;;5041970;28;20284;-48
2022/01/16 09:34:22;;;;;;;56.20;32.08;;;1.60;99.90;;;;;;5049155;28;20275;-52
2022/01/16 09:36:49;;;;;;;55.08;30.30;;;1.80;99.90;;;;;;5045001;28;20231;-47
2022/01/16 09:39:16;;;;;;;49.65;32.20;;;1.70;99.90;;;;;;5042700;28;20204;-54
2022/01/16 09:41:45;;;;;;;44.92;29.48;;;1.80;99.90;;;;;;5049755;28;20208;-49
2022/01/16 09:44:13;;;;;;;61.75;30.80;;;2.10;99.90;;;;;;5053671;28;20266;-49
2022/01/16 09:46:40;;;;;;;55.35;29.17;;;2.20;99.90;;;;;;5053140;28;20223;-52
2022/01/16 09:49:07;;;;;;;54.10;32.30;;;2.30;99.90;;;;;;5041257;28;20200;-49
2022/01/16 09:51:34;;;;;;;52.20;31.20;;;2.50;99.90;;;;;;5045650;28;20196;-50
2022/01/16 09:54:04;;;;;;;64.47;32.63;;;2.50;99.90;;;;;;5048364;28;20223;-52
2022/01/16 09:56:32;;;;;;;58.63;26.92;;;2.10;99.90;;;;;;5050453;28;20213;-53
2022/01/16 09:59:05;;;;;;;47.00;28.58;;;2.10;99.90;;;;;;5054409;28;20538;-51
2022/01/16 10:01:33;;;;;;;53.13;28.48;;;2.30;99.90;;;;;;5055473;28;20200;-54
2022/01/16 10:04:00;;;;;;;68.95;31.02;;;2.10;99.90;;;;;;5054097;28;20351;-54
2022/01/16 10:06:28;;;;;;;44.50;26.17;;;2.20;99.90;;;;;;5044617;28;20531;-50
2022/01/16 10:08:55;;;;;;;48.85;29.23;;;2.20;99.90;;;;;;5060711;28;20507;-52
2022/01/16 10:11:39;;;;;;;56.63;29.13;;;2.40;99.90;;;;;;5061514;28;20200;-49
2022/01/16 10:14:30;;;;;;;44.55;29.33;;;2.70;99.90;;;;;;5061440;28;20211;-49
2022/01/16 10:16:58;;;;;;;56.35;27.38;;;2.80;99.90;;;;;;5061061;28;20398;-53
2022/01/16 10:19:28;;;;;;;54.72;31.48;;;2.90;99.90;;;;;;5058942;28;20274;-54
2022/01/16 10:22:02;;;;;;;58.33;33.15;;;2.90;99.90;;;;;;5075122;28;20216;-51
2022/01/16 10:24:34;;;;;;;56.85;33.50;;;3.10;99.90;;;;;;5077018;28;20405;-55
2022/01/16 10:27:07;;;;;;;57.78;29.67;;;3.10;99.90;;;;;;5080710;28;20216;-51
2022/01/16 10:30:01;;;;;;;55.00;30.85;;;2.90;99.90;;;;;;5080836;28;20461;-51
2022/01/16 10:32:31;;;;;;;52.20;31.08;;;3.00;99.90;;;;;;5081016;28;20548;-50
2022/01/16 10:35:22;;;;;;;56.42;27.40;;;3.20;99.90;;;;;;5080616;28;20227;-53
2022/01/16 10:37:53;;;;;;;43.58;25.27;;;3.20;99.90;;;;;;5061852;28;20249;-49
2022/01/16 10:40:36;;;;;;;45.00;27.65;;;3.30;99.90;;;;;;5060820;28;20208;-48
2022/01/16 10:43:13;;;;;;;50.60;26.33;;;3.30;99.90;;;;;;5053249;28;20221;-52
2022/01/16 10:45:43;;;;;;;50.05;27.60;;;3.30;99.90;;;;;;5047162;28;20303;-50
2022/01/16 10:48:13;;;;;;;48.00;27.15;;;3.40;99.90;;;;;;5062093;28;20242;-50
2022/01/16 10:50:45;;;;;;;70.72;37.17;;;3.50;99.90;;;;;;5057631;28;20369;-53
2022/01/16 10:53:19;;;;;;;57.13;28.30;;;3.60;99.90;;;;;;5060353;28;20227;-47
2022/01/16 10:55:47;;;;;;;235.70;96.65;;;3.90;99.90;;;;;;5060915;28;20213;-49
2022/01/16 10:58:45;;;;;;;78.75;37.67;;;4.00;99.90;;;;;;5060727;28;20207;-49
2022/01/16 11:01:16;;;;;;;68.50;35.03;;;4.20;99.90;;;;;;5057479;28;20384;-54
2022/01/16 11:03:58;;;;;;;148.65;51.60;;;4.40;99.90;;;;;;5071929;28;20220;-49
2022/01/16 11:06:27;;;;;;;75.88;36.10;;;4.80;99.90;;;;;;5065304;28;20226;-52
2022/01/16 11:08:57;;;;;;;55.38;28.52;;;4.50;99.90;;;;;;5058376;28;20196;-54
2022/01/16 11:11:25;;;;;;;46.90;26.00;;;4.40;99.90;;;;;;5063737;28;20249;-49
2022/01/16 11:13:55;;;;;;;41.45;24.33;;;4.60;99.90;;;;;;5078890;28;20262;-50
2022/01/16 11:16:24;;;;;;;42.30;24.73;;;4.80;99.90;;;;;;5079697;28;20228;-52
2022/01/16 11:18:52;;;;;;;42.22;24.10;;;5.00;99.90;;;;;;5068919;28;20206;-48
2022/01/16 11:21:43;;;;;;;50.17;24.98;;;5.30;99.90;;;;;;5059962;28;20279;-51
2022/01/16 11:27:06;;;;;;;43.35;25.48;;;6.40;99.90;;;;;;5050427;28;20483;-51
2022/01/16 11:29:34;;;;;;;42.15;25.45;;;6.90;99.90;;;;;;5051442;28;20206;-49
2022/01/16 11:32:02;;;;;;;64.18;31.70;;;7.00;99.90;;;;;;5057395;28;20203;-50
2022/01/16 11:34:29;;;;;;;45.15;23.80;;;7.10;99.90;;;;;;5059698;28;20410;-50
2022/01/16 11:36:57;;;;;;;44.60;25.30;;;7.00;99.90;;;;;;5059545;28;20516;-50
2022/01/16 11:39:35;;;;;;;40.15;25.60;;;7.20;99.90;;;;;;5060985;28;20196;-49
2022/01/16 11:42:05;;;;;;;51.70;25.70;;;7.20;99.90;;;;;;5064554;28;20198;-51
2022/01/16 11:44:34;;;;;;;50.00;29.95;;;7.50;99.90;;;;;;5063710;28;20227;-50
2022/01/16 11:47:04;;;;;;;49.45;27.30;;;7.60;99.90;;;;;;5051262;28;20232;-53
2022/01/16 11:49:42;;;;;;;43.88;26.63;;;6.80;99.90;;;;;;5056843;28;20203;-49
2022/01/16 11:52:15;;;;;;;38.80;23.98;;;6.40;99.90;;;;;;5039394;28;20241;-48
2022/01/16 11:54:50;;;;;;;41.58;23.33;;;6.70;99.90;;;;;;5040275;28;20215;-50
2022/01/16 11:57:29;;;;;;;37.15;22.48;;;7.10;99.90;;;;;;5044563;28;20391;-51
2022/01/16 12:00:11;;;;;;;42.25;23.00;;;7.20;99.90;;;;;;5048238;28;20198;-51
2022/01/16 12:02:44;;;;;;;27.45;19.08;;;6.80;99.90;;;;;;5040210;28;20200;-52
2022/01/16 12:05:29;;;;;;;39.75;22.50;;;6.60;99.90;;;;;;5054816;28;20209;-51
2022/01/16 12:08:00;;;;;;;41.72;23.00;;;6.50;99.90;;;;;;5058978;28;20233;-53
2022/01/16 12:10:35;;;;;;;38.67;24.70;;;6.70;99.90;;;;;;5058684;28;20198;-53
2022/01/16 12:13:02;;;;;;;34.90;21.55;;;7.00;99.90;;;;;;5052539;28;20226;-50
2022/01/16 12:15:32;;;;;;;32.47;20.77;;;7.10;99.90;;;;;;5057327;28;20615;-51
2022/01/16 12:18:00;;;;;;;30.88;18.15;;;7.20;99.90;;;;;;5058847;28;20249;-51
2022/01/16 12:20:30;;;;;;;29.15;20.25;;;7.30;99.90;;;;;;5075324;28;20199;-53
2022/01/16 12:23:04;;;;;;;28.35;18.98;;;7.20;99.90;;;;;;5079077;28;20207;-51
2022/01/16 12:25:51;;;;;;;31.73;20.67;;;6.80;99.90;;;;;;5061991;28;20272;-50
2022/01/16 12:28:22;;;;;;;31.75;18.70;;;6.80;99.90;;;;;;5079412;28;20195;-49
2022/01/16 12:30:58;;;;;;;30.10;20.77;;;7.00;99.90;;;;;;5078767;28;20552;-52
2022/01/16 12:33:43;;;;;;;33.60;20.17;;;7.00;99.90;;;;;;5069156;28;20215;-50
2022/01/16 12:36:31;;;;;;;27.92;19.05;;;7.00;99.90;;;;;;5053400;28;20203;-49
2022/01/16 12:39:07;;;;;;;29.35;16.80;;;6.80;99.90;;;;;;5052218;28;20204;-49
2022/01/16 12:41:41;;;;;;;29.20;21.33;;;7.10;99.90;;;;;;5059104;28;20452;-49
2022/01/16 12:44:12;;;;;;;26.27;16.67;;;7.20;99.90;;;;;;5060659;28;20261;-51
2022/01/16 12:46:48;;;;;;;27.65;16.23;;;7.20;99.90;;;;;;5062670;28;20226;-52
2022/01/16 12:49:17;;;;;;;30.02;17.60;;;7.40;99.90;;;;;;5061529;28;20234;-51
2022/01/16 12:51:47;;;;;;;24.00;16.13;;;7.50;99.90;;;;;;5055432;28;20208;-45
2022/01/16 12:54:17;;;;;;;21.67;15.40;;;7.50;99.90;;;;;;5045961;28;20217;-52
2022/01/16 12:56:56;;;;;;;30.40;16.77;;;7.70;99.90;;;;;;5047796;28;20275;-53
2022/01/16 12:59:43;;;;;;;23.73;15.60;;;7.60;99.90;;;;;;5050274;28;20197;-52
2022/01/16 13:02:11;;;;;;;31.75;18.85;;;7.70;99.90;;;;;;5052628;28;20267;-51
2022/01/16 13:04:43;;;;;;;27.50;17.48;;;7.50;99.90;;;;;;5063842;28;20258;-53
2022/01/16 13:07:32;;;;;;;26.48;18.25;;;7.40;99.90;;;;;;5047680;28;20474;-49
2022/01/16 13:09:59;;;;;;;33.90;18.58;;;7.40;99.90;;;;;;5053599;28;20218;-49
2022/01/16 13:12:27;;;;;;;32.08;18.40;;;7.50;99.90;;;;;;5062181;28;20196;-50
2022/01/16 13:15:00;;;;;;;26.48;18.40;;;7.40;99.90;;;;;;5058287;28;20264;-49
2022/01/16 13:17:32;;;;;;;25.75;14.68;;;7.40;99.90;;;;;;5061407;28;20206;-50
2022/01/16 13:20:02;;;;;;;26.88;18.02;;;7.50;99.90;;;;;;5065786;28;20583;-49
2022/01/16 13:22:37;;;;;;;28.65;16.75;;;7.20;99.90;;;;;;5082700;28;20221;-51
2022/01/16 13:25:08;;;;;;;35.88;18.50;;;7.00;99.90;;;;;;5081260;28;20393;-50